Time,TemperatureF,DewpointF,PressureIn,WindDirection,WindDirectionDegrees,WindSpeedMPH,WindSpeedGustMPH,Humidity,HourlyPrecipIn,Conditions,Clouds,dailyrainin,SolarRadiationWatts/m^2,SoftwareType,DateUTC
2013-06-11 00:02:00,57.0,40.0,-100.00,NNE,19,3.0,12.0,52,0.00,,,0.00,1.000000,,2013-06-11 07:02:00,
2013-06-11 00:32:00,56.0,41.0,-100.00,NE,53,2.0,8.0,58,0.00,,,0.00,1.000000,,2013-06-11 07:32:00,
2013-06-11 00:42:00,56.0,41.0,-100.00,NE,53,2.0,8.0,58,0.00,,,0.00,1.000000,,2013-06-11 07:42:00,
2013-06-11 00:52:00,56.0,41.0,-100.00,NE,53,2.0,8.0,58,0.00,,,0.00,1.000000,,2013-06-11 07:52:00,
2013-06-11 01:02:00,56.0,41.0,-100.00,NE,53,2.0,8.0,58,0.00,,,0.00,1.000000,,2013-06-11 08:02:00,
2013-06-11 01:32:00,53.0,40.0,-100.00,South,191,3.0,6.0,61,0.00,,,0.00,1.000000,,2013-06-11 08:32:00,
2013-06-11 01:42:00,53.0,40.0,-100.00,South,191,3.0,6.0,61,0.00,,,0.00,1.000000,,2013-06-11 08:42:00,
2013-06-11 01:52:00,53.0,40.0,-100.00,South,191,3.0,6.0,61,0.00,,,0.00,1.000000,,2013-06-11 08:52:00,
2013-06-11 02:02:00,53.0,40.0,-100.00,South,191,3.0,6.0,61,0.00,,,0.00,1.000000,,2013-06-11 09:02:00,
2013-06-11 02:33:00,53.0,41.0,-100.00,SSW,196,5.0,7.0,64,0.00,,,0.00,1.000000,,2013-06-11 09:33:00,
2013-06-11 02:43:00,53.0,41.0,-100.00,SSW,196,5.0,7.0,64,0.00,,,0.00,1.000000,,2013-06-11 09:43:00,
2013-06-11 02:53:00,53.0,41.0,-100.00,SSW,196,5.0,7.0,64,0.00,,,0.00,1.000000,,2013-06-11 09:53:00,
2013-06-11 03:03:00,53.0,41.0,-100.00,SSW,196,5.0,7.0,64,0.00,,,0.00,1.000000,,2013-06-11 10:03:00,
2013-06-11 03:33:00,52.0,40.0,-100.00,SSW,210,4.0,7.0,64,0.00,,,0.00,1.000000,,2013-06-11 10:33:00,
2013-06-11 03:43:00,52.0,40.0,-100.00,SSW,210,4.0,7.0,64,0.00,,,0.00,1.000000,,2013-06-11 10:43:00,
2013-06-11 03:52:00,52.0,40.0,-100.00,SSW,210,4.0,7.0,64,0.00,,,0.00,1.000000,,2013-06-11 10:52:00,
2013-06-11 04:02:00,52.0,40.0,-100.00,SSW,210,4.0,7.0,64,0.00,,,0.00,1.000000,,2013-06-11 11:02:00,
2013-06-11 04:32:00,52.0,40.0,-100.00,WSW,237,7.0,12.0,64,0.00,,,-99.99,1.000000,,2013-06-11 11:32:00,
2013-06-11 04:42:00,52.0,40.0,-100.00,WSW,237,7.0,12.0,64,0.00,,,-99.99,1.000000,,2013-06-11 11:42:00,
2013-06-11 04:52:00,52.0,40.0,-100.00,WSW,237,7.0,12.0,64,0.00,,,-99.99,1.000000,,2013-06-11 11:52:00,
2013-06-11 05:02:00,52.0,40.0,-100.00,WSW,237,7.0,12.0,64,0.00,,,-99.99,1.000000,,2013-06-11 12:02:00,
2013-06-11 05:32:00,51.0,39.0,-100.00,SW,227,5.0,11.0,64,0.00,,,-99.99,1.000000,,2013-06-11 12:32:00,
2013-06-11 05:42:00,51.0,39.0,-100.00,SW,227,5.0,11.0,64,0.00,,,-99.99,1.000000,,2013-06-11 12:42:00,
2013-06-11 05:52:00,51.0,39.0,-100.00,SW,227,5.0,11.0,64,0.00,,,-99.99,1.000000,,2013-06-11 12:52:00,
2013-06-11 06:02:00,51.0,39.0,-100.00,SW,227,5.0,11.0,64,0.00,,,-99.99,1.000000,,2013-06-11 13:02:00,
2013-06-11 06:32:00,51.0,40.0,-100.00,WNW,303,4.0,8.0,65,0.00,,,-99.99,20.000000,,2013-06-11 13:32:00,
2013-06-11 06:42:00,51.0,40.0,-100.00,WNW,303,4.0,8.0,65,0.00,,,-99.99,20.000000,,2013-06-11 13:42:00,
2013-06-11 06:52:00,51.0,40.0,-100.00,WNW,303,4.0,8.0,65,0.00,,,-99.99,20.000000,,2013-06-11 13:52:00,
2013-06-11 07:02:00,51.0,40.0,-100.00,WNW,303,4.0,8.0,65,0.00,,,-99.99,20.000000,,2013-06-11 14:02:00,
2013-06-11 07:32:00,52.0,39.0,-100.00,NNW,332,5.0,11.0,60,0.00,,,0.00,74.000000,,2013-06-11 14:32:00,
2013-06-11 07:42:00,52.0,39.0,-100.00,NNW,332,5.0,11.0,60,0.00,,,0.00,74.000000,,2013-06-11 14:42:00,
2013-06-11 07:53:00,52.0,39.0,-100.00,NNW,332,5.0,11.0,60,0.00,,,0.00,74.000000,,2013-06-11 14:53:00,
2013-06-11 08:02:00,52.0,39.0,-100.00,NNW,332,5.0,11.0,60,0.00,,,0.00,74.000000,,2013-06-11 15:02:00,
2013-06-11 08:33:00,58.0,41.0,-100.00,SE,141,4.0,8.0,53,0.00,,,0.00,215.000000,,2013-06-11 15:33:00,
2013-06-11 08:43:00,58.0,41.0,-100.00,SE,141,4.0,8.0,53,0.00,,,0.00,215.000000,,2013-06-11 15:43:00,
2013-06-11 08:53:00,58.0,41.0,-100.00,SE,141,4.0,8.0,53,0.00,,,0.00,215.000000,,2013-06-11 15:53:00,
2013-06-11 09:02:00,58.0,41.0,-100.00,SE,141,4.0,8.0,53,0.00,,,0.00,215.000000,,2013-06-11 16:02:00,
2013-06-11 09:33:00,60.0,40.0,-100.00,SSE,148,7.0,10.0,48,0.00,,,0.00,391.000000,,2013-06-11 16:33:00,
2013-06-11 09:42:00,60.0,40.0,-100.00,SSE,148,7.0,10.0,48,0.00,,,0.00,391.000000,,2013-06-11 16:42:00,
2013-06-11 09:52:00,60.0,40.0,-100.00,SSE,148,7.0,10.0,48,0.00,,,0.00,391.000000,,2013-06-11 16:52:00,
2013-06-11 10:02:00,60.0,40.0,-100.00,SSE,148,7.0,10.0,48,0.00,,,0.00,391.000000,,2013-06-11 17:02:00,
2013-06-11 10:32:00,61.0,37.0,-100.00,SSW,195,5.0,12.0,41,0.00,,,0.00,608.000000,,2013-06-11 17:32:00,
2013-06-11 10:43:00,61.0,37.0,-100.00,SSW,195,5.0,12.0,41,0.00,,,0.00,608.000000,,2013-06-11 17:43:00,
2013-06-11 10:52:00,61.0,37.0,-100.00,SSW,195,5.0,12.0,41,0.00,,,0.00,608.000000,,2013-06-11 17:52:00,
2013-06-11 11:02:00,61.0,37.0,-100.00,SSW,195,5.0,12.0,41,0.00,,,0.00,608.000000,,2013-06-11 18:02:00,
2013-06-11 11:33:00,67.0,35.0,-100.00,North,350,12.0,21.0,30,0.00,,,0.00,809.000000,,2013-06-11 18:33:00,
2013-06-11 11:43:00,67.0,35.0,-100.00,North,350,12.0,21.0,30,0.00,,,0.00,809.000000,,2013-06-11 18:43:00,
2013-06-11 11:52:00,67.0,35.0,-100.00,North,350,12.0,21.0,30,0.00,,,0.00,809.000000,,2013-06-11 18:52:00,
2013-06-11 12:02:00,67.0,35.0,-100.00,North,350,12.0,21.0,30,0.00,,,0.00,809.000000,,2013-06-11 19:02:00,
2013-06-11 12:33:00,64.0,31.0,-100.00,North,353,13.0,21.0,29,0.00,,,0.00,553.000000,,2013-06-11 19:33:00,
2013-06-11 12:42:00,64.0,31.0,-100.00,North,353,13.0,21.0,29,0.00,,,0.00,553.000000,,2013-06-11 19:42:00,
2013-06-11 12:52:00,64.0,31.0,-100.00,North,353,13.0,21.0,29,0.00,,,0.00,553.000000,,2013-06-11 19:52:00,
2013-06-11 13:02:00,64.0,31.0,-100.00,North,353,13.0,21.0,29,0.00,,,0.00,553.000000,,2013-06-11 20:02:00,
2013-06-11 13:32:00,65.0,31.0,-100.00,North,352,13.0,24.0,28,0.00,,,0.00,758.000000,,2013-06-11 20:32:00,
2013-06-11 13:42:00,65.0,31.0,-100.00,North,352,13.0,24.0,28,0.00,,,0.00,758.000000,,2013-06-11 20:42:00,
2013-06-11 13:52:00,65.0,31.0,-100.00,North,352,13.0,24.0,28,0.00,,,0.00,758.000000,,2013-06-11 20:52:00,
2013-06-11 14:02:00,65.0,31.0,-100.00,North,352,13.0,24.0,28,0.00,,,0.00,758.000000,,2013-06-11 21:02:00,
2013-06-11 14:33:00,68.0,33.0,-100.00,North,355,14.0,26.0,27,0.00,,,0.00,910.000000,,2013-06-11 21:33:00,
2013-06-11 14:42:00,68.0,33.0,-100.00,North,355,14.0,26.0,27,0.00,,,0.00,910.000000,,2013-06-11 21:42:00,
2013-06-11 14:53:00,68.0,33.0,-100.00,North,355,14.0,26.0,27,0.00,,,0.00,910.000000,,2013-06-11 21:53:00,
2013-06-11 15:03:00,68.0,33.0,-100.00,North,355,14.0,26.0,27,0.00,,,0.00,910.000000,,2013-06-11 22:03:00,
2013-06-11 15:33:00,69.0,32.0,-100.00,NNW,339,13.0,24.0,25,0.00,,,0.00,887.000000,,2013-06-11 22:33:00,
2013-06-11 15:42:00,69.0,32.0,-100.00,NNW,339,13.0,24.0,25,0.00,,,0.00,887.000000,,2013-06-11 22:42:00,
2013-06-11 15:52:00,69.0,32.0,-100.00,NNW,339,13.0,24.0,25,0.00,,,0.00,887.000000,,2013-06-11 22:52:00,
2013-06-11 16:02:00,69.0,32.0,-100.00,NNW,339,13.0,24.0,25,0.00,,,0.00,887.000000,,2013-06-11 23:02:00,
2013-06-11 16:32:00,69.0,33.0,-100.00,NNW,345,13.0,25.0,26,0.00,,,0.00,800.000000,,2013-06-11 23:32:00,
2013-06-11 16:42:00,69.0,33.0,-100.00,NNW,345,13.0,25.0,26,0.00,,,0.00,800.000000,,2013-06-11 23:42:00,
2013-06-11 16:52:00,69.0,33.0,-100.00,NNW,345,13.0,25.0,26,0.00,,,0.00,800.000000,,2013-06-11 23:52:00,
2013-06-11 17:02:00,69.0,33.0,-100.00,NNW,345,13.0,25.0,26,0.00,,,0.00,800.000000,,2013-06-12 00:02:00,
2013-06-11 17:32:00,67.0,32.0,-100.00,NNW,346,13.0,22.0,27,0.00,,,0.00,648.000000,,2013-06-12 00:32:00,
2013-06-11 17:42:00,67.0,32.0,-100.00,NNW,346,13.0,22.0,27,0.00,,,0.00,648.000000,,2013-06-12 00:42:00,
2013-06-11 17:52:00,67.0,32.0,-100.00,NNW,346,13.0,22.0,27,0.00,,,0.00,648.000000,,2013-06-12 00:52:00,
2013-06-11 18:02:00,67.0,32.0,-100.00,NNW,346,13.0,22.0,27,0.00,,,0.00,648.000000,,2013-06-12 01:02:00,
2013-06-11 18:32:00,66.0,35.0,-100.00,North,358,14.0,24.0,32,0.00,,,0.00,478.000000,,2013-06-12 01:32:00,
2013-06-11 18:42:00,66.0,35.0,-100.00,North,358,14.0,24.0,32,0.00,,,0.00,478.000000,,2013-06-12 01:42:00,
2013-06-11 18:52:00,66.0,35.0,-100.00,North,358,14.0,24.0,32,0.00,,,0.00,478.000000,,2013-06-12 01:52:00,
2013-06-11 19:02:00,66.0,35.0,-100.00,North,358,14.0,24.0,32,0.00,,,0.00,478.000000,,2013-06-12 02:02:00,
2013-06-11 19:32:00,63.0,33.0,-100.00,North,352,14.0,24.0,32,0.00,,,0.00,301.000000,,2013-06-12 02:32:00,
2013-06-11 19:42:00,63.0,33.0,-100.00,North,352,14.0,24.0,32,0.00,,,0.00,301.000000,,2013-06-12 02:42:00,
2013-06-11 19:52:00,63.0,33.0,-100.00,North,352,14.0,24.0,32,0.00,,,0.00,301.000000,,2013-06-12 02:52:00,
2013-06-11 20:01:00,63.0,33.0,-100.00,North,352,14.0,24.0,32,0.00,,,0.00,301.000000,,2013-06-12 03:01:00,
2013-06-11 20:33:00,59.0,33.0,-100.00,North,353,12.0,24.0,38,0.00,,,0.00,111.000000,,2013-06-12 03:33:00,
2013-06-11 20:43:00,59.0,33.0,-100.00,North,353,12.0,24.0,38,0.00,,,0.00,111.000000,,2013-06-12 03:43:00,
2013-06-11 20:53:00,59.0,33.0,-100.00,North,353,12.0,24.0,38,0.00,,,0.00,111.000000,,2013-06-12 03:53:00,
2013-06-11 21:02:00,59.0,33.0,-100.00,North,353,12.0,24.0,38,0.00,,,0.00,111.000000,,2013-06-12 04:02:00,
2013-06-11 21:34:00,55.0,36.0,-100.00,East,83,3.0,18.0,49,0.00,,,0.00,9.000000,,2013-06-12 04:34:00,
2013-06-11 21:42:00,55.0,36.0,-100.00,East,83,3.0,18.0,49,0.00,,,0.00,9.000000,,2013-06-12 04:42:00,
2013-06-11 21:52:00,55.0,36.0,-100.00,East,83,3.0,18.0,49,0.00,,,0.00,9.000000,,2013-06-12 04:52:00,
2013-06-11 22:02:00,55.0,36.0,-100.00,East,83,3.0,18.0,49,0.00,,,0.00,9.000000,,2013-06-12 05:02:00,
2013-06-11 22:32:00,53.0,37.0,-100.00,ENE,58,2.0,10.0,54,0.00,,,0.00,1.000000,,2013-06-12 05:32:00,
2013-06-11 22:42:00,53.0,37.0,-100.00,ENE,58,2.0,10.0,54,0.00,,,0.00,1.000000,,2013-06-12 05:42:00,
2013-06-11 22:52:00,53.0,37.0,-100.00,ENE,58,2.0,10.0,54,0.00,,,0.00,1.000000,,2013-06-12 05:52:00,
2013-06-11 23:02:00,53.0,37.0,-100.00,ENE,58,2.0,10.0,54,0.00,,,0.00,1.000000,,2013-06-12 06:02:00,
2013-06-11 23:32:00,52.0,38.0,-100.00,South,169,3.0,8.0,59,0.00,,,0.00,1.000000,,2013-06-12 06:32:00,
2013-06-11 23:42:00,52.0,38.0,-100.00,South,169,3.0,8.0,59,0.00,,,0.00,1.000000,,2013-06-12 06:42:00,
2013-06-11 23:52:00,52.0,38.0,-100.00,South,169,3.0,8.0,59,0.00,,,0.00,1.000000,,2013-06-12 06:52:00,